createdAt,value
2019-04-10T00:01:17.346Z,72.68
2019-04-10T00:03:56.746Z,72.90
2019-04-10T00:06:34.052Z,72.12
2019-04-10T00:09:12.764Z,71.99
2019-04-10T00:11:51.378Z,72.38
2019-04-10T00:14:28.896Z,72.31
2019-04-10T00:17:06.981Z,72.13
2019-04-10T00:19:45.589Z,72.64
2019-04-10T00:22:24.321Z,72.79
2019-04-10T00:25:02.328Z,72.23
2019-04-10T00:27:40.958Z,72.53
2019-04-10T00:30:20.773Z,72.50
2019-04-10T00:32:58.565Z,72.24
2019-04-10T00:35:37.282Z,70.87
2019-04-10T00:38:15.742Z,70.18
2019-04-10T00:40:55.232Z,71.47
2019-04-10T00:43:32.990Z,71.47
2019-04-10T00:46:10.569Z,72.21
2019-04-10T00:48:48.472Z,70.72
2019-04-10T00:51:26.428Z,69.43
2019-04-10T00:54:05.599Z,69.51
2019-04-10T00:56:43.640Z,70.15
2019-04-10T00:59:21.267Z,69.70
2019-04-10T01:02:00.376Z,68.78
2019-04-10T01:04:38.378Z,68.74
2019-04-10T01:07:17.234Z,69.41
2019-04-10T01:09:55.569Z,69.18
2019-04-10T01:12:34.200Z,67.33
2019-04-10T01:15:12.146Z,65.94
2019-04-10T01:17:50.638Z,67.66
2019-04-10T01:20:29.339Z,66.13
2019-04-10T01:23:07.876Z,65.40
2019-04-10T01:25:46.526Z,65.04
2019-04-10T01:28:24.792Z,65.78
2019-04-10T01:31:02.703Z,67.75
2019-04-10T01:33:40.895Z,67.58
2019-04-10T01:36:18.623Z,67.73
2019-04-10T01:38:58.376Z,68.06
2019-04-10T01:41:36.350Z,68.10
2019-04-10T01:44:15.275Z,66.88
2019-04-10T01:46:52.964Z,65.36
2019-04-10T01:49:31.470Z,64.78
2019-04-10T01:52:10.882Z,62.99
2019-04-10T01:54:49.265Z,61.63
2019-04-10T01:57:28.505Z,60.67
2019-04-10T02:00:06.673Z,63.82
2019-04-10T02:03:03.485Z,65.50
2019-04-10T02:05:42.845Z,64.30
2019-04-10T02:08:21.448Z,63.95
2019-04-10T02:11:00.651Z,64.18
2019-04-10T02:13:39.256Z,65.50
2019-04-10T02:16:17.209Z,65.32
2019-04-10T02:18:55.043Z,64.85
2019-04-10T02:21:32.119Z,63.37
2019-04-10T02:24:11.135Z,65.01
2019-04-10T02:26:49.850Z,63.43
2019-04-10T02:29:28.046Z,64.38
2019-04-10T02:32:06.347Z,63.38
2019-04-10T02:34:45.998Z,63.31
2019-04-10T02:37:25.078Z,61.51
2019-04-10T02:40:04.977Z,61.25
2019-04-10T02:42:45.005Z,59.29
2019-04-10T02:45:23.782Z,61.35
2019-04-10T02:48:04.020Z,59.75
2019-04-10T02:50:43.040Z,60.45
2019-04-10T02:53:21.579Z,59.65
2019-04-10T02:56:00.446Z,59.72
2019-04-10T02:58:38.576Z,58.02
2019-04-10T03:01:17.481Z,59.42
2019-04-10T03:03:55.747Z,56.90
2019-04-10T03:06:33.569Z,56.00
2019-04-10T03:09:28.866Z,57.38
2019-04-10T03:11:52.019Z,56.14
2019-04-10T03:14:30.160Z,54.67
2019-04-10T03:17:08.166Z,55.51
2019-04-10T03:19:45.849Z,56.33
2019-04-10T03:22:23.143Z,57.92
2019-04-10T03:25:00.588Z,58.89
2019-04-10T03:27:38.720Z,58.53
2019-04-10T03:30:18.466Z,58.78
2019-04-10T03:33:16.136Z,57.50
2019-04-10T03:35:52.220Z,57.39
2019-04-10T03:38:30.463Z,57.53
2019-04-10T03:41:08.379Z,58.46
2019-04-10T03:43:45.843Z,57.12
2019-04-10T03:46:24.297Z,58.22
2019-04-10T03:49:01.939Z,57.91
2019-04-10T03:51:40.843Z,57.75
2019-04-10T03:54:18.677Z,54.23
2019-04-10T03:56:56.278Z,51.83
2019-04-10T03:59:33.778Z,53.01
2019-04-10T04:02:12.018Z,54.33
2019-04-10T04:04:50.094Z,53.72
2019-04-10T04:07:27.424Z,55.34
2019-04-10T04:10:05.121Z,55.01
2019-04-10T04:12:42.638Z,55.35
2019-04-10T04:15:21.884Z,54.36
2019-04-10T04:18:00.362Z,52.55
2019-04-10T04:20:39.184Z,56.29
2019-04-10T04:23:17.235Z,55.83
2019-04-10T04:25:54.782Z,54.00
2019-04-10T04:28:34.265Z,53.76
2019-04-10T04:31:12.695Z,54.08
2019-04-10T04:33:51.910Z,54.62
2019-04-10T04:36:29.469Z,52.57
2019-04-10T04:39:21.175Z,50.88
2019-04-10T04:41:48.715Z,49.53
2019-04-10T04:44:27.400Z,49.53
2019-04-10T04:47:06.192Z,49.95
2019-04-10T04:49:46.672Z,48.78
2019-04-10T04:52:25.858Z,52.12
2019-04-10T04:55:03.954Z,51.85
2019-04-10T04:57:42.260Z,50.99
2019-04-10T05:00:19.819Z,50.48
2019-04-10T05:02:57.736Z,48.38
2019-04-10T05:05:36.769Z,48.23
2019-04-10T05:08:15.286Z,48.01
2019-04-10T05:10:53.741Z,48.84
2019-04-10T05:13:31.339Z,51.38
2019-04-10T05:16:10.081Z,51.94
2019-04-10T05:18:47.791Z,50.70
2019-04-10T05:21:27.376Z,50.19
2019-04-10T05:24:05.404Z,52.23
2019-04-10T05:26:43.217Z,50.84
2019-04-10T05:29:21.722Z,51.92
2019-04-10T05:31:58.815Z,49.15
2019-04-10T05:34:36.877Z,47.94
2019-04-10T05:37:15.729Z,49.27
2019-04-10T05:39:53.943Z,50.60
2019-04-10T05:42:33.062Z,51.05
2019-04-10T05:45:10.978Z,51.94
2019-04-10T05:47:48.642Z,51.76
2019-04-10T05:50:26.292Z,53.39
2019-04-10T05:53:04.840Z,52.45
2019-04-10T05:55:42.022Z,54.57
2019-04-10T05:58:19.831Z,54.00
2019-04-10T06:01:00.921Z,55.73
2019-04-10T06:03:38.714Z,53.79
2019-04-10T06:06:17.318Z,52.38
2019-04-10T06:08:54.660Z,53.13
2019-04-10T06:11:33.121Z,52.73
2019-04-10T06:14:10.732Z,53.27
2019-04-10T06:16:48.964Z,53.47
2019-04-10T06:19:26.983Z,55.18
2019-04-10T06:22:05.203Z,55.46
2019-04-10T06:24:44.572Z,54.33
2019-04-10T06:27:22.321Z,53.47
2019-04-10T06:29:59.881Z,54.73
2019-04-10T06:32:39.655Z,55.29
2019-04-10T06:35:17.974Z,55.50
2019-04-10T06:37:55.125Z,55.32
2019-04-10T06:40:33.485Z,54.72
2019-04-10T06:43:11.177Z,54.36
2019-04-10T06:45:48.742Z,55.86
2019-04-10T06:48:27.797Z,55.92
2019-04-10T06:51:06.130Z,56.19
2019-04-10T06:53:44.928Z,55.71
2019-04-10T06:56:23.462Z,55.00
2019-04-10T06:59:00.964Z,55.42
2019-04-10T07:01:47.738Z,54.67
2019-04-10T07:04:21.860Z,56.15
2019-04-10T07:07:04.670Z,55.99
2019-04-10T07:09:37.925Z,56.18
2019-04-10T07:12:16.598Z,57.26
2019-04-10T07:14:58.041Z,57.46
2019-04-10T07:17:37.395Z,56.50
2019-04-10T07:20:15.494Z,57.07
2019-04-10T07:22:53.337Z,55.19
2019-04-10T07:25:31.931Z,55.95
2019-04-10T07:28:11.950Z,56.50
2019-04-10T07:30:49.873Z,56.35
2019-04-10T07:33:28.782Z,56.88
2019-04-10T07:36:10.751Z,55.74
2019-04-10T07:38:46.866Z,54.76
2019-04-10T07:41:26.378Z,53.53
2019-04-10T07:44:05.803Z,52.98
2019-04-10T07:46:43.690Z,54.84
2019-04-10T07:49:22.188Z,53.95
2019-04-10T07:52:02.515Z,53.33
2019-04-10T07:54:43.070Z,54.34
2019-04-10T07:57:20.285Z,54.19
2019-04-10T07:59:58.826Z,53.58
2019-04-10T08:02:38.522Z,55.41
2019-04-10T08:05:16.770Z,55.99
2019-04-10T08:07:55.970Z,54.80
2019-04-10T08:10:34.845Z,55.38
2019-04-10T08:13:12.445Z,53.59
2019-04-10T08:15:50.696Z,53.44
2019-04-10T08:18:28.032Z,54.42
2019-04-10T08:21:05.384Z,55.10
2019-04-10T08:23:43.172Z,53.85
2019-04-10T08:26:21.419Z,53.20
2019-04-10T08:28:59.849Z,53.39
2019-04-10T08:31:39.787Z,53.62
2019-04-10T08:34:17.464Z,55.13
2019-04-10T08:36:56.825Z,54.87
2019-04-10T08:39:41.193Z,55.19
2019-04-10T08:42:14.807Z,53.78
2019-04-10T08:44:52.327Z,54.85
2019-04-10T08:47:31.340Z,55.23
2019-04-10T08:50:09.766Z,54.71
2019-04-10T08:52:47.274Z,53.78
2019-04-10T08:55:24.707Z,54.71
2019-04-10T08:58:02.885Z,55.96
2019-04-10T09:00:40.723Z,56.00
2019-04-10T09:03:19.492Z,55.34
2019-04-10T09:05:57.352Z,54.41
2019-04-10T09:08:37.152Z,54.90
2019-04-10T09:11:15.894Z,54.68
2019-04-10T09:13:53.534Z,55.25
2019-04-10T09:16:31.058Z,56.32
2019-04-10T09:19:09.772Z,56.61
2019-04-10T09:21:47.926Z,54.67
2019-04-10T09:24:25.830Z,54.67
2019-04-10T09:27:04.604Z,54.46
2019-04-10T09:29:42.637Z,54.85
2019-04-10T09:32:20.220Z,53.77
2019-04-10T09:34:58.764Z,55.26
2019-04-10T09:37:37.952Z,54.78
2019-04-10T09:40:16.324Z,55.74
2019-04-10T09:42:53.944Z,55.82
2019-04-10T09:45:31.306Z,53.67
2019-04-10T09:48:09.278Z,53.55
2019-04-10T09:50:48.160Z,55.20
2019-04-10T09:53:26.656Z,55.14
2019-04-10T09:56:05.232Z,55.52
2019-04-10T09:58:43.210Z,55.37
2019-04-10T10:01:22.043Z,54.61
2019-04-10T10:03:59.431Z,55.38
2019-04-10T10:06:38.437Z,54.78
2019-04-10T10:09:17.631Z,55.65
2019-04-10T10:11:55.702Z,56.13
2019-04-10T10:14:33.742Z,55.92
2019-04-10T10:17:10.837Z,56.42
2019-04-10T10:19:50.179Z,56.08
2019-04-10T10:22:29.332Z,55.97
2019-04-10T10:25:08.530Z,56.35
2019-04-10T10:27:46.607Z,56.10
2019-04-10T10:30:25.196Z,55.46
2019-04-10T10:33:03.650Z,55.32
2019-04-10T10:35:41.233Z,55.53
2019-04-10T10:38:21.089Z,56.84
2019-04-10T10:40:59.316Z,57.30
2019-04-10T10:43:37.506Z,57.49
2019-04-10T10:46:15.512Z,57.72
2019-04-10T10:48:52.423Z,58.03
2019-04-10T10:51:30.927Z,58.07
2019-04-10T10:54:10.582Z,58.08
2019-04-10T10:56:48.865Z,58.49
2019-04-10T10:59:27.360Z,58.10
2019-04-10T11:02:06.405Z,57.84
2019-04-10T11:04:45.290Z,58.05
2019-04-10T11:07:23.003Z,58.53
2019-04-10T11:10:01.564Z,59.11
2019-04-10T11:12:39.549Z,59.17
2019-04-10T11:15:18.518Z,59.04
2019-04-10T11:17:57.815Z,60.07
2019-04-10T11:20:36.358Z,60.25
2019-04-10T11:23:14.571Z,60.49
2019-04-10T11:25:53.885Z,60.36
2019-04-10T11:28:33.656Z,61.36
2019-04-10T11:31:11.123Z,63.01
2019-04-10T11:33:52.922Z,63.07
2019-04-10T11:36:29.883Z,62.32
2019-04-10T11:39:21.716Z,62.41
2019-04-10T11:41:53.091Z,62.69
2019-04-10T11:44:33.110Z,63.87
2019-04-10T11:47:10.638Z,64.29
2019-04-10T11:49:49.657Z,64.52
2019-04-10T11:55:12.704Z,63.64
2019-04-10T11:57:49.003Z,63.00
2019-04-10T12:03:22.067Z,60.38
2019-04-10T12:05:59.833Z,59.37
2019-04-10T12:09:03.702Z,59.69
2019-04-10T12:11:19.945Z,60.79
2019-04-10T12:13:58.930Z,61.12
2019-04-10T12:16:36.958Z,61.42
2019-04-10T12:19:15.616Z,61.96
2019-04-10T12:21:53.845Z,61.84
2019-04-10T12:24:32.162Z,60.96
2019-04-10T12:27:09.510Z,62.44
2019-04-10T12:29:48.845Z,65.26
2019-04-10T12:32:26.889Z,66.08
2019-04-10T12:35:04.673Z,66.46
2019-04-10T12:37:43.337Z,66.15
2019-04-10T12:40:21.528Z,66.42
2019-04-10T12:42:59.377Z,67.31
2019-04-10T12:45:38.231Z,67.64
2019-04-10T12:48:16.941Z,67.08
2019-04-10T12:50:55.138Z,67.99
2019-04-10T12:53:33.829Z,68.21
2019-04-10T12:56:11.456Z,68.72
2019-04-10T12:58:49.355Z,68.12
2019-04-10T13:01:28.893Z,67.80
2019-04-10T13:04:07.552Z,67.05
2019-04-10T13:06:46.400Z,67.86
2019-04-10T13:09:24.250Z,68.35
2019-04-10T13:12:02.814Z,69.04
2019-04-10T13:14:41.277Z,69.33
2019-04-10T13:17:20.279Z,68.77
2019-04-10T13:19:58.333Z,69.43
2019-04-10T13:22:36.214Z,69.51
2019-04-10T13:25:14.449Z,68.48
2019-04-10T13:27:52.723Z,67.71
2019-04-10T13:30:40.393Z,67.99
2019-04-10T13:33:10.385Z,70.53
2019-04-10T13:35:47.609Z,70.84
2019-04-10T13:38:30.164Z,70.44
2019-04-10T13:41:04.162Z,70.05
2019-04-10T13:43:42.266Z,71.34
2019-04-10T13:46:20.521Z,72.24
2019-04-10T13:48:59.738Z,70.41
2019-04-10T13:51:39.295Z,69.82
2019-04-10T13:54:17.612Z,69.80
2019-04-10T13:56:57.180Z,71.21
2019-04-10T13:59:35.189Z,71.29
2019-04-10T14:02:19.564Z,71.40
2019-04-10T14:04:59.708Z,71.75
2019-04-10T14:07:38.155Z,72.91
2019-04-10T14:10:16.224Z,72.80
2019-04-10T14:12:53.642Z,72.80
2019-04-10T14:15:31.792Z,72.31
2019-04-10T14:18:10.235Z,73.47
2019-04-10T14:20:48.651Z,73.57
2019-04-10T14:23:29.797Z,73.21
2019-04-10T14:26:20.310Z,72.59
2019-04-10T14:28:59.609Z,72.42
2019-04-10T14:31:51.055Z,72.22
2019-04-10T14:34:28.669Z,73.00
2019-04-10T14:37:09.511Z,72.14
2019-04-10T14:39:47.689Z,72.51
2019-04-10T14:42:26.612Z,72.45
2019-04-10T14:45:05.692Z,73.19
2019-04-10T14:47:43.458Z,73.53
2019-04-10T14:50:21.858Z,73.08
2019-04-10T14:53:01.309Z,73.11
2019-04-10T14:55:39.735Z,72.71
2019-04-10T14:58:25.163Z,74.15
2019-04-10T15:00:57.705Z,73.97
2019-04-10T15:03:36.171Z,72.74
2019-04-10T15:06:13.759Z,72.08
2019-04-10T15:08:52.199Z,73.45
2019-04-10T15:11:30.861Z,73.89
2019-04-10T15:14:08.186Z,73.40
2019-04-10T15:16:53.460Z,72.77
2019-04-10T15:19:26.860Z,72.87
2019-04-10T15:22:04.295Z,73.17
2019-04-10T15:24:42.763Z,73.57
2019-04-10T15:27:21.460Z,73.20
2019-04-10T15:29:59.657Z,74.11
2019-04-10T15:32:38.463Z,74.15
2019-04-10T15:35:16.020Z,74.92
2019-04-10T15:37:55.465Z,73.19
2019-04-10T15:40:34.551Z,73.78
2019-04-10T15:43:12.937Z,74.39
2019-04-10T15:45:50.470Z,75.24
2019-04-10T15:48:29.469Z,75.19
2019-04-10T15:51:07.763Z,74.80
2019-04-10T15:53:45.255Z,74.35
2019-04-10T15:56:23.512Z,74.24
2019-04-10T15:59:01.211Z,73.60
2019-04-10T16:01:39.683Z,74.45
2019-04-10T16:04:17.195Z,73.48
2019-04-10T16:06:54.544Z,74.45
2019-04-10T16:09:44.607Z,74.41
2019-04-10T16:12:14.824Z,74.86
2019-04-10T16:14:52.799Z,73.71
2019-04-10T16:17:44.034Z,74.07
2019-04-10T16:20:30.379Z,73.25
2019-04-10T16:23:21.918Z,74.08
2019-04-10T16:25:59.369Z,73.16
2019-04-10T16:28:37.952Z,73.56
2019-04-10T16:31:17.438Z,73.79
2019-04-10T16:33:55.098Z,74.14
2019-04-10T16:36:33.294Z,74.25
2019-04-10T16:39:15.449Z,74.97
2019-04-10T16:41:54.506Z,75.17
2019-04-10T16:44:33.189Z,74.76
2019-04-10T16:47:12.099Z,74.71
2019-04-10T16:49:49.570Z,74.60
2019-04-10T16:52:27.654Z,73.99
2019-04-10T16:55:06.283Z,74.62
2019-04-10T16:57:45.330Z,74.74
2019-04-10T17:00:24.286Z,75.40
2019-04-10T17:03:01.894Z,75.89
2019-04-10T17:05:41.744Z,75.47
2019-04-10T17:08:19.633Z,74.31
2019-04-10T17:10:56.914Z,74.76
2019-04-10T17:13:35.647Z,75.74
2019-04-10T17:16:15.453Z,73.86
2019-04-10T17:18:52.949Z,74.66
2019-04-10T17:21:31.134Z,74.16
2019-04-10T17:24:09.214Z,74.61
2019-04-10T17:26:48.786Z,74.89
2019-04-10T17:29:27.252Z,74.04
2019-04-10T17:32:06.763Z,73.58
2019-04-10T17:34:45.137Z,74.39
2019-04-10T17:37:23.429Z,74.56
2019-04-10T17:40:02.174Z,73.88
2019-04-10T17:42:41.255Z,73.86
2019-04-10T17:45:20.634Z,74.06
2019-04-10T17:47:59.335Z,75.33
2019-04-10T17:50:37.486Z,74.83
2019-04-10T17:53:16.558Z,73.94
2019-04-10T17:55:54.067Z,74.13
2019-04-10T17:58:35.879Z,74.37
2019-04-10T18:01:18.847Z,73.98
2019-04-10T18:04:00.537Z,74.26
2019-04-10T18:06:36.598Z,73.77
2019-04-10T18:09:15.830Z,72.40
2019-04-10T18:11:54.288Z,71.98
2019-04-10T18:14:34.628Z,72.78
2019-04-10T18:17:11.100Z,73.21
2019-04-10T18:19:50.240Z,73.20
2019-04-10T18:22:28.885Z,73.50
2019-04-10T18:25:05.966Z,74.19
2019-04-10T18:27:43.444Z,74.39
2019-04-10T18:30:21.680Z,74.46
2019-04-10T18:33:00.151Z,73.37
2019-04-10T18:35:40.717Z,73.08
2019-04-10T18:38:19.546Z,72.86
2019-04-10T18:41:02.073Z,72.53
2019-04-10T18:43:36.353Z,72.94
2019-04-10T18:46:17.615Z,72.61
2019-04-10T18:48:54.934Z,72.69
2019-04-10T18:51:34.083Z,73.87
2019-04-10T18:54:12.443Z,73.31
2019-04-10T18:56:49.783Z,73.28
2019-04-10T18:59:53.049Z,73.62
2019-04-10T19:02:45.919Z,73.73
2019-04-10T19:05:27.841Z,72.60
2019-04-10T19:08:07.402Z,72.72
2019-04-10T19:10:45.500Z,72.57
2019-04-10T19:13:24.837Z,73.49
2019-04-10T19:16:03.401Z,72.78
2019-04-10T19:18:40.832Z,72.82
2019-04-10T19:21:19.602Z,72.45
2019-04-10T19:23:57.597Z,73.40
2019-04-10T19:26:35.871Z,73.49
2019-04-10T19:29:13.495Z,73.58
2019-04-10T19:31:54.401Z,73.50
2019-04-10T19:34:32.141Z,74.30
2019-04-10T19:37:09.727Z,74.35
2019-04-10T19:39:48.764Z,73.59
2019-04-10T19:42:27.344Z,72.61
2019-04-10T19:45:05.775Z,73.34
2019-04-10T19:47:44.507Z,73.87
2019-04-10T19:50:23.420Z,73.58
2019-04-10T19:53:01.239Z,73.77
2019-04-10T19:55:40.058Z,74.61
2019-04-10T19:58:18.261Z,74.58
2019-04-10T20:00:56.831Z,73.85
2019-04-10T20:03:35.358Z,73.21
2019-04-10T20:06:14.224Z,73.47
2019-04-10T20:08:52.228Z,73.73
2019-04-10T20:11:37.792Z,73.71
2019-04-10T20:14:10.443Z,72.97
2019-04-10T20:16:49.366Z,72.92
2019-04-10T20:19:26.939Z,73.74
2019-04-10T20:22:04.493Z,73.66
2019-04-10T20:24:43.173Z,72.96
2019-04-10T20:27:21.624Z,73.04
2019-04-10T20:29:59.396Z,72.68
2019-04-10T20:32:38.476Z,72.62
2019-04-10T20:35:16.210Z,72.33
2019-04-10T20:37:53.938Z,72.67
2019-04-10T20:40:31.430Z,73.36
2019-04-10T20:43:10.954Z,71.65
2019-04-10T20:45:49.599Z,71.26
2019-04-10T20:48:28.727Z,71.48
2019-04-10T20:51:06.531Z,72.21
2019-04-10T20:53:44.294Z,72.07
2019-04-10T20:56:22.422Z,71.36
2019-04-10T20:59:00.006Z,72.34
2019-04-10T21:01:37.733Z,71.95
2019-04-10T21:04:15.175Z,71.69
2019-04-10T21:06:52.956Z,72.29
2019-04-10T21:09:32.084Z,72.28
2019-04-10T21:12:13.157Z,73.08
2019-04-10T21:14:49.773Z,73.35
2019-04-10T21:17:27.828Z,72.24
2019-04-10T21:20:05.722Z,71.56
2019-04-10T21:22:43.568Z,71.16
2019-04-10T21:25:21.189Z,72.05
2019-04-10T21:28:00.331Z,72.42
2019-04-10T21:30:56.637Z,72.77
2019-04-10T21:34:01.535Z,72.20
2019-04-10T21:36:41.352Z,72.03
2019-04-10T21:39:19.167Z,72.84
2019-04-10T21:42:10.255Z,72.87
2019-04-10T21:44:37.212Z,73.36
2019-04-10T21:47:15.173Z,73.21
2019-04-10T21:49:53.418Z,73.53
2019-04-10T21:52:32.651Z,72.39
2019-04-10T21:55:10.699Z,72.00
2019-04-10T21:57:49.134Z,72.73
2019-04-10T22:00:41.371Z,72.69
2019-04-10T22:03:21.177Z,73.31
2019-04-10T22:06:16.059Z,73.17
2019-04-10T22:09:12.628Z,73.00
2019-04-10T22:11:53.153Z,73.31
2019-04-10T22:14:31.047Z,73.10
2019-04-10T22:17:10.800Z,73.11
2019-04-10T22:19:49.038Z,73.72
2019-04-10T22:22:26.675Z,74.32
2019-04-10T22:25:05.389Z,74.51
2019-04-10T22:27:43.532Z,75.27
2019-04-10T22:30:21.137Z,74.80
2019-04-10T22:32:59.816Z,73.91
2019-04-10T22:35:39.820Z,73.97
2019-04-10T22:38:17.653Z,74.72
2019-04-10T22:40:56.029Z,74.56
2019-04-10T22:43:33.966Z,73.84
2019-04-10T22:46:13.045Z,74.33
2019-04-10T22:48:50.450Z,74.67
2019-04-10T22:51:30.059Z,74.73
2019-04-10T22:54:08.132Z,73.32
2019-04-10T22:56:45.756Z,72.14
2019-04-10T22:59:24.221Z,72.36
2019-04-10T23:02:07.339Z,74.14
2019-04-10T23:04:42.749Z,74.21
2019-04-10T23:07:21.947Z,73.18
2019-04-10T23:10:00.460Z,72.90
2019-04-10T23:12:50.361Z,72.55
2019-04-10T23:15:19.538Z,72.98
2019-04-10T23:17:57.761Z,72.52
2019-04-10T23:20:36.149Z,72.55
2019-04-10T23:23:15.523Z,72.88
2019-04-10T23:25:53.100Z,72.80
2019-04-10T23:28:31.534Z,71.85
2019-04-10T23:31:10.084Z,71.49
2019-04-10T23:33:48.283Z,71.68
2019-04-10T23:36:26.477Z,72.01
2019-04-10T23:39:06.125Z,73.41
2019-04-10T23:41:43.408Z,73.94
2019-04-10T23:44:20.844Z,73.90
2019-04-10T23:46:58.402Z,73.58
2019-04-10T23:49:37.443Z,73.50
2019-04-10T23:52:15.817Z,72.07
2019-04-10T23:54:54.352Z,72.47
2019-04-10T23:57:31.566Z,72.87
